sensor_id;sensor_type;location;lat;lon;timestamp;P1;durP1;ratioP1;P2;durP2;ratioP2
73239;SDS011;61452;40.054;4.110;2023-02-03T00:01:45;22.83;;;4.55;;
73239;SDS011;61452;40.054;4.110;2023-02-03T00:06:47;15.65;;;4.22;;
73239;SDS011;61452;40.054;4.110;2023-02-03T00:11:49;16.23;;;3.67;;
73239;SDS011;61452;40.054;4.110;2023-02-03T00:16:52;16.75;;;4.45;;
73239;SDS011;61452;40.054;4.110;2023-02-03T00:21:54;18.67;;;4.07;;
73239;SDS011;61452;40.054;4.110;2023-02-03T00:26:56;14.90;;;4.43;;
73239;SDS011;61452;40.054;4.110;2023-02-03T00:31:59;22.40;;;4.00;;
73239;SDS011;61452;40.054;4.110;2023-02-03T00:37:01;19.75;;;4.20;;
73239;SDS011;61452;40.054;4.110;2023-02-03T00:42:04;13.65;;;3.47;;
73239;SDS011;61452;40.054;4.110;2023-02-03T00:47:07;17.20;;;4.18;;
73239;SDS011;61452;40.054;4.110;2023-02-03T00:52:09;16.55;;;3.28;;
73239;SDS011;61452;40.054;4.110;2023-02-03T00:57:11;19.10;;;4.25;;
73239;SDS011;61452;40.054;4.110;2023-02-03T01:02:14;16.67;;;3.70;;
73239;SDS011;61452;40.054;4.110;2023-02-03T01:07:18;21.38;;;4.18;;
73239;SDS011;61452;40.054;4.110;2023-02-03T01:12:21;16.98;;;4.63;;
73239;SDS011;61452;40.054;4.110;2023-02-03T01:17:23;19.08;;;4.80;;
73239;SDS011;61452;40.054;4.110;2023-02-03T01:22:27;19.05;;;3.72;;
73239;SDS011;61452;40.054;4.110;2023-02-03T01:27:31;21.98;;;3.83;;
73239;SDS011;61452;40.054;4.110;2023-02-03T01:32:34;12.48;;;2.90;;
73239;SDS011;61452;40.054;4.110;2023-02-03T01:37:38;18.58;;;4.47;;
73239;SDS011;61452;40.054;4.110;2023-02-03T01:42:40;14.48;;;3.30;;
73239;SDS011;61452;40.054;4.110;2023-02-03T01:47:44;18.33;;;3.67;;
73239;SDS011;61452;40.054;4.110;2023-02-03T01:52:50;19.25;;;3.92;;
73239;SDS011;61452;40.054;4.110;2023-02-03T01:57:58;16.65;;;4.32;;
73239;SDS011;61452;40.054;4.110;2023-02-03T02:03:05;17.13;;;3.88;;
73239;SDS011;61452;40.054;4.110;2023-02-03T02:08:11;15.50;;;3.45;;
73239;SDS011;61452;40.054;4.110;2023-02-03T02:13:14;13.27;;;2.95;;
73239;SDS011;61452;40.054;4.110;2023-02-03T02:18:24;13.13;;;3.40;;
73239;SDS011;61452;40.054;4.110;2023-02-03T02:23:43;15.45;;;4.13;;
73239;SDS011;61452;40.054;4.110;2023-02-03T02:29:27;14.85;;;3.78;;
73239;SDS011;61452;40.054;4.110;2023-02-03T02:45:28;16.08;;;3.10;;
73239;SDS011;61452;40.054;4.110;2023-02-03T02:50:33;15.25;;;3.85;;
73239;SDS011;61452;40.054;4.110;2023-02-03T02:55:41;10.95;;;3.10;;
73239;SDS011;61452;40.054;4.110;2023-02-03T03:00:45;15.38;;;3.45;;
73239;SDS011;61452;40.054;4.110;2023-02-03T03:05:55;13.68;;;3.25;;
73239;SDS011;61452;40.054;4.110;2023-02-03T03:11:03;16.05;;;3.38;;
73239;SDS011;61452;40.054;4.110;2023-02-03T03:16:06;12.93;;;3.22;;
73239;SDS011;61452;40.054;4.110;2023-02-03T03:21:13;10.45;;;2.92;;
73239;SDS011;61452;40.054;4.110;2023-02-03T03:26:26;13.68;;;3.30;;
73239;SDS011;61452;40.054;4.110;2023-02-03T03:31:33;17.65;;;3.45;;
73239;SDS011;61452;40.054;4.110;2023-02-03T03:36:46;10.52;;;2.50;;
73239;SDS011;61452;40.054;4.110;2023-02-03T03:47:22;14.50;;;2.92;;
73239;SDS011;61452;40.054;4.110;2023-02-03T03:52:31;10.77;;;2.63;;
73239;SDS011;61452;40.054;4.110;2023-02-03T03:57:41;9.52;;;2.70;;
73239;SDS011;61452;40.054;4.110;2023-02-03T04:02:49;12.73;;;3.60;;
73239;SDS011;61452;40.054;4.110;2023-02-03T04:07:53;11.50;;;3.00;;
73239;SDS011;61452;40.054;4.110;2023-02-03T04:12:56;13.68;;;3.65;;
73239;SDS011;61452;40.054;4.110;2023-02-03T04:17:58;12.95;;;3.03;;
73239;SDS011;61452;40.054;4.110;2023-02-03T04:23:02;10.82;;;2.72;;
73239;SDS011;61452;40.054;4.110;2023-02-03T04:28:04;9.52;;;2.35;;
73239;SDS011;61452;40.054;4.110;2023-02-03T04:33:07;8.77;;;2.65;;
73239;SDS011;61452;40.054;4.110;2023-02-03T04:38:09;13.13;;;2.80;;
73239;SDS011;61452;40.054;4.110;2023-02-03T04:43:12;12.43;;;3.22;;
73239;SDS011;61452;40.054;4.110;2023-02-03T04:48:15;12.25;;;2.60;;
73239;SDS011;61452;40.054;4.110;2023-02-03T04:53:17;10.25;;;2.75;;
73239;SDS011;61452;40.054;4.110;2023-02-03T04:58:20;11.85;;;2.63;;
73239;SDS011;61452;40.054;4.110;2023-02-03T05:03:22;7.75;;;2.45;;
73239;SDS011;61452;40.054;4.110;2023-02-03T05:08:26;13.98;;;3.22;;
73239;SDS011;61452;40.054;4.110;2023-02-03T05:13:29;10.00;;;2.67;;
73239;SDS011;61452;40.054;4.110;2023-02-03T05:18:31;12.75;;;3.92;;
73239;SDS011;61452;40.054;4.110;2023-02-03T05:23:33;12.00;;;2.83;;
73239;SDS011;61452;40.054;4.110;2023-02-03T05:28:37;11.77;;;2.55;;
73239;SDS011;61452;40.054;4.110;2023-02-03T05:33:39;12.77;;;3.00;;
73239;SDS011;61452;40.054;4.110;2023-02-03T05:38:41;10.13;;;3.00;;
73239;SDS011;61452;40.054;4.110;2023-02-03T05:43:43;11.52;;;2.15;;
73239;SDS011;61452;40.054;4.110;2023-02-03T05:48:46;11.43;;;2.80;;
73239;SDS011;61452;40.054;4.110;2023-02-03T05:53:48;7.55;;;2.17;;
73239;SDS011;61452;40.054;4.110;2023-02-03T05:58:50;9.32;;;2.58;;
73239;SDS011;61452;40.054;4.110;2023-02-03T06:03:54;12.50;;;2.95;;
73239;SDS011;61452;40.054;4.110;2023-02-03T06:08:56;11.60;;;2.50;;
73239;SDS011;61452;40.054;4.110;2023-02-03T06:13:58;12.88;;;3.13;;
73239;SDS011;61452;40.054;4.110;2023-02-03T06:19:01;15.32;;;3.25;;
73239;SDS011;61452;40.054;4.110;2023-02-03T06:24:03;9.77;;;2.55;;
73239;SDS011;61452;40.054;4.110;2023-02-03T06:29:05;13.52;;;2.92;;
73239;SDS011;61452;40.054;4.110;2023-02-03T06:34:07;12.20;;;2.88;;
73239;SDS011;61452;40.054;4.110;2023-02-03T06:39:10;7.95;;;3.22;;
73239;SDS011;61452;40.054;4.110;2023-02-03T06:44:12;10.93;;;2.25;;
73239;SDS011;61452;40.054;4.110;2023-02-03T06:49:14;12.57;;;2.50;;
73239;SDS011;61452;40.054;4.110;2023-02-03T06:54:18;14.40;;;2.72;;
73239;SDS011;61452;40.054;4.110;2023-02-03T06:59:20;11.35;;;3.10;;
73239;SDS011;61452;40.054;4.110;2023-02-03T07:04:22;13.20;;;3.08;;
73239;SDS011;61452;40.054;4.110;2023-02-03T07:09:25;13.00;;;3.20;;
73239;SDS011;61452;40.054;4.110;2023-02-03T07:14:27;9.98;;;3.42;;
73239;SDS011;61452;40.054;4.110;2023-02-03T07:24:33;10.65;;;3.08;;
73239;SDS011;61452;40.054;4.110;2023-02-03T07:29:35;9.68;;;2.42;;
73239;SDS011;61452;40.054;4.110;2023-02-03T07:34:37;10.82;;;2.85;;
73239;SDS011;61452;40.054;4.110;2023-02-03T07:39:39;9.38;;;2.08;;
73239;SDS011;61452;40.054;4.110;2023-02-03T07:44:42;12.52;;;2.65;;
73239;SDS011;61452;40.054;4.110;2023-02-03T07:49:45;6.35;;;2.25;;
73239;SDS011;61452;40.054;4.110;2023-02-03T07:54:47;10.50;;;2.60;;
73239;SDS011;61452;40.054;4.110;2023-02-03T07:59:49;12.85;;;2.60;;
73239;SDS011;61452;40.054;4.110;2023-02-03T08:04:51;9.95;;;2.60;;
73239;SDS011;61452;40.054;4.110;2023-02-03T08:09:53;11.23;;;2.70;;
73239;SDS011;61452;40.054;4.110;2023-02-03T08:14:55;13.18;;;2.90;;
73239;SDS011;61452;40.054;4.110;2023-02-03T08:19:58;10.40;;;2.45;;
73239;SDS011;61452;40.054;4.110;2023-02-03T08:25:00;11.13;;;2.75;;
73239;SDS011;61452;40.054;4.110;2023-02-03T08:30:02;9.43;;;2.67;;
73239;SDS011;61452;40.054;4.110;2023-02-03T08:35:06;8.77;;;2.47;;
73239;SDS011;61452;40.054;4.110;2023-02-03T08:40:09;10.02;;;2.20;;
73239;SDS011;61452;40.054;4.110;2023-02-03T08:45:12;11.02;;;2.58;;
73239;SDS011;61452;40.054;4.110;2023-02-03T08:50:15;10.00;;;2.72;;
73239;SDS011;61452;40.054;4.110;2023-02-03T08:55:18;13.95;;;3.35;;
73239;SDS011;61452;40.054;4.110;2023-02-03T09:00:20;9.45;;;2.63;;
73239;SDS011;61452;40.054;4.110;2023-02-03T09:05:23;12.68;;;2.22;;
73239;SDS011;61452;40.054;4.110;2023-02-03T09:10:25;11.05;;;2.38;;
73239;SDS011;61452;40.054;4.110;2023-02-03T09:15:28;10.20;;;2.97;;
73239;SDS011;61452;40.054;4.110;2023-02-03T09:20:30;9.55;;;2.42;;
73239;SDS011;61452;40.054;4.110;2023-02-03T09:25:33;9.52;;;2.42;;
73239;SDS011;61452;40.054;4.110;2023-02-03T09:30:35;11.48;;;2.60;;
73239;SDS011;61452;40.054;4.110;2023-02-03T09:35:37;8.48;;;3.00;;
73239;SDS011;61452;40.054;4.110;2023-02-03T09:40:39;10.63;;;2.70;;
73239;SDS011;61452;40.054;4.110;2023-02-03T09:45:42;9.40;;;2.42;;
73239;SDS011;61452;40.054;4.110;2023-02-03T09:50:44;7.75;;;2.03;;
73239;SDS011;61452;40.054;4.110;2023-02-03T09:55:48;7.38;;;2.53;;
73239;SDS011;61452;40.054;4.110;2023-02-03T10:01:01;8.82;;;2.78;;
73239;SDS011;61452;40.054;4.110;2023-02-03T10:06:42;10.32;;;2.85;;
73239;SDS011;61452;40.054;4.110;2023-02-03T10:22:10;7.80;;;2.15;;
73239;SDS011;61452;40.054;4.110;2023-02-03T10:27:18;9.63;;;2.00;;
73239;SDS011;61452;40.054;4.110;2023-02-03T10:32:23;6.22;;;2.10;;
73239;SDS011;61452;40.054;4.110;2023-02-03T10:37:34;9.98;;;2.55;;
73239;SDS011;61452;40.054;4.110;2023-02-03T10:42:45;10.52;;;2.30;;
73239;SDS011;61452;40.054;4.110;2023-02-03T10:48:12;7.68;;;2.17;;
73239;SDS011;61452;40.054;4.110;2023-02-03T10:53:25;9.43;;;2.38;;
73239;SDS011;61452;40.054;4.110;2023-02-03T10:58:34;6.45;;;2.05;;
73239;SDS011;61452;40.054;4.110;2023-02-03T11:03:43;9.10;;;2.13;;
73239;SDS011;61452;40.054;4.110;2023-02-03T11:08:54;10.93;;;2.45;;
73239;SDS011;61452;40.054;4.110;2023-02-03T11:19:06;8.38;;;2.38;;
73239;SDS011;61452;40.054;4.110;2023-02-03T11:29:34;8.43;;;2.30;;
73239;SDS011;61452;40.054;4.110;2023-02-03T11:34:39;6.13;;;1.85;;
73239;SDS011;61452;40.054;4.110;2023-02-03T11:39:48;9.32;;;2.42;;
73239;SDS011;61452;40.054;4.110;2023-02-03T11:44:50;9.80;;;2.00;;
73239;SDS011;61452;40.054;4.110;2023-02-03T11:49:57;8.10;;;2.05;;
73239;SDS011;61452;40.054;4.110;2023-02-03T11:55:15;7.88;;;2.33;;
73239;SDS011;61452;40.054;4.110;2023-02-03T12:00:49;9.73;;;2.10;;
73239;SDS011;61452;40.054;4.110;2023-02-03T12:33:38;12.10;;;2.38;;
73239;SDS011;61452;40.054;4.110;2023-02-03T12:43:48;9.77;;;2.40;;
73239;SDS011;61452;40.054;4.110;2023-02-03T12:48:55;8.35;;;2.00;;
73239;SDS011;61452;40.054;4.110;2023-02-03T12:54:22;6.90;;;1.83;;
73239;SDS011;61452;40.054;4.110;2023-02-03T13:00:29;8.88;;;2.58;;
73239;SDS011;61452;40.054;4.110;2023-02-03T13:05:25;7.68;;;1.88;;
73239;SDS011;61452;40.054;4.110;2023-02-03T13:10:36;10.43;;;2.70;;
73239;SDS011;61452;40.054;4.110;2023-02-03T13:15:45;7.18;;;2.15;;
73239;SDS011;61452;40.054;4.110;2023-02-03T13:20:53;6.43;;;1.98;;
73239;SDS011;61452;40.054;4.110;2023-02-03T13:31:37;6.70;;;1.67;;
73239;SDS011;61452;40.054;4.110;2023-02-03T13:37:03;6.93;;;1.65;;
73239;SDS011;61452;40.054;4.110;2023-02-03T13:42:25;6.45;;;1.80;;
73239;SDS011;61452;40.054;4.110;2023-02-03T13:47:32;9.00;;;2.30;;
73239;SDS011;61452;40.054;4.110;2023-02-03T13:52:37;8.15;;;1.73;;
73239;SDS011;61452;40.054;4.110;2023-02-03T13:57:46;10.13;;;2.35;;
73239;SDS011;61452;40.054;4.110;2023-02-03T14:02:53;6.43;;;1.52;;
73239;SDS011;61452;40.054;4.110;2023-02-03T14:07:56;8.40;;;1.95;;
73239;SDS011;61452;40.054;4.110;2023-02-03T14:12:59;9.07;;;2.05;;
73239;SDS011;61452;40.054;4.110;2023-02-03T14:23:26;9.57;;;2.20;;
73239;SDS011;61452;40.054;4.110;2023-02-03T14:28:38;10.27;;;2.30;;
73239;SDS011;61452;40.054;4.110;2023-02-03T14:34:04;8.27;;;1.88;;
73239;SDS011;61452;40.054;4.110;2023-02-03T15:00:32;6.97;;;2.05;;
73239;SDS011;61452;40.054;4.110;2023-02-03T15:05:40;4.32;;;1.63;;
73239;SDS011;61452;40.054;4.110;2023-02-03T15:10:46;10.95;;;2.20;;
73239;SDS011;61452;40.054;4.110;2023-02-03T15:15:48;4.82;;;1.65;;
73239;SDS011;61452;40.054;4.110;2023-02-03T15:21:15;7.55;;;2.05;;
73239;SDS011;61452;40.054;4.110;2023-02-03T15:26:21;6.30;;;1.58;;
73239;SDS011;61452;40.054;4.110;2023-02-03T15:36:46;7.53;;;1.90;;
73239;SDS011;61452;40.054;4.110;2023-02-03T15:41:52;7.47;;;1.73;;
73239;SDS011;61452;40.054;4.110;2023-02-03T15:46:57;6.30;;;1.58;;
73239;SDS011;61452;40.054;4.110;2023-02-03T15:52:06;8.50;;;1.73;;
73239;SDS011;61452;40.054;4.110;2023-02-03T15:57:16;5.95;;;1.77;;
73239;SDS011;61452;40.054;4.110;2023-02-03T16:02:26;7.88;;;1.80;;
73239;SDS011;61452;40.054;4.110;2023-02-03T16:07:32;7.90;;;1.95;;
73239;SDS011;61452;40.054;4.110;2023-02-03T16:12:36;7.13;;;2.03;;
73239;SDS011;61452;40.054;4.110;2023-02-03T16:17:38;7.60;;;2.13;;
73239;SDS011;61452;40.054;4.110;2023-02-03T16:22:44;8.57;;;1.95;;
73239;SDS011;61452;40.054;4.110;2023-02-03T16:33:35;6.32;;;1.80;;
73239;SDS011;61452;40.054;4.110;2023-02-03T16:38:57;7.50;;;1.67;;
73239;SDS011;61452;40.054;4.110;2023-02-03T16:44:20;9.73;;;1.90;;
73239;SDS011;61452;40.054;4.110;2023-02-03T16:49:41;5.55;;;1.83;;
73239;SDS011;61452;40.054;4.110;2023-02-03T16:55:02;6.40;;;1.50;;
73239;SDS011;61452;40.054;4.110;2023-02-03T17:00:04;5.25;;;1.80;;
73239;SDS011;61452;40.054;4.110;2023-02-03T17:05:09;6.78;;;1.70;;
73239;SDS011;61452;40.054;4.110;2023-02-03T17:10:11;9.35;;;1.90;;
73239;SDS011;61452;40.054;4.110;2023-02-03T17:15:14;8.88;;;2.78;;
73239;SDS011;61452;40.054;4.110;2023-02-03T17:20:16;7.00;;;2.05;;
73239;SDS011;61452;40.054;4.110;2023-02-03T17:25:18;6.93;;;1.90;;
73239;SDS011;61452;40.054;4.110;2023-02-03T17:30:21;4.85;;;1.80;;
73239;SDS011;61452;40.054;4.110;2023-02-03T17:35:23;7.32;;;1.60;;
73239;SDS011;61452;40.054;4.110;2023-02-03T17:40:26;6.57;;;1.45;;
73239;SDS011;61452;40.054;4.110;2023-02-03T17:45:46;6.10;;;1.73;;
73239;SDS011;61452;40.054;4.110;2023-02-03T17:51:09;7.75;;;1.88;;
73239;SDS011;61452;40.054;4.110;2023-02-03T17:56:31;4.63;;;1.65;;
73239;SDS011;61452;40.054;4.110;2023-02-03T18:01:36;6.22;;;1.38;;
73239;SDS011;61452;40.054;4.110;2023-02-03T18:06:39;4.43;;;1.35;;
73239;SDS011;61452;40.054;4.110;2023-02-03T18:11:41;6.70;;;1.90;;
73239;SDS011;61452;40.054;4.110;2023-02-03T18:16:44;6.35;;;2.10;;
73239;SDS011;61452;40.054;4.110;2023-02-03T18:21:46;7.18;;;1.75;;
73239;SDS011;61452;40.054;4.110;2023-02-03T18:26:50;5.68;;;1.60;;
73239;SDS011;61452;40.054;4.110;2023-02-03T18:31:52;6.07;;;1.90;;
73239;SDS011;61452;40.054;4.110;2023-02-03T18:36:54;6.32;;;1.60;;
73239;SDS011;61452;40.054;4.110;2023-02-03T18:41:57;4.20;;;1.48;;
73239;SDS011;61452;40.054;4.110;2023-02-03T18:46:59;4.03;;;1.50;;
73239;SDS011;61452;40.054;4.110;2023-02-03T18:52:07;5.05;;;1.90;;
73239;SDS011;61452;40.054;4.110;2023-02-03T18:57:10;4.72;;;1.65;;
73239;SDS011;61452;40.054;4.110;2023-02-03T19:02:14;4.70;;;1.40;;
73239;SDS011;61452;40.054;4.110;2023-02-03T19:07:17;6.55;;;1.65;;
73239;SDS011;61452;40.054;4.110;2023-02-03T19:12:19;4.75;;;1.50;;
73239;SDS011;61452;40.054;4.110;2023-02-03T19:17:21;4.07;;;1.33;;
73239;SDS011;61452;40.054;4.110;2023-02-03T19:22:24;5.85;;;1.60;;
73239;SDS011;61452;40.054;4.110;2023-02-03T19:27:26;4.20;;;1.40;;
73239;SDS011;61452;40.054;4.110;2023-02-03T19:32:29;3.95;;;1.25;;
73239;SDS011;61452;40.054;4.110;2023-02-03T19:37:32;2.95;;;1.50;;
73239;SDS011;61452;40.054;4.110;2023-02-03T19:42:34;5.03;;;1.45;;
73239;SDS011;61452;40.054;4.110;2023-02-03T19:47:36;3.90;;;1.35;;
73239;SDS011;61452;40.054;4.110;2023-02-03T19:52:38;4.93;;;1.30;;
73239;SDS011;61452;40.054;4.110;2023-02-03T19:57:40;3.78;;;1.20;;
73239;SDS011;61452;40.054;4.110;2023-02-03T20:02:42;4.07;;;1.23;;
73239;SDS011;61452;40.054;4.110;2023-02-03T20:07:45;2.95;;;1.40;;
73239;SDS011;61452;40.054;4.110;2023-02-03T20:12:47;4.53;;;1.40;;
73239;SDS011;61452;40.054;4.110;2023-02-03T20:17:50;5.30;;;1.52;;
73239;SDS011;61452;40.054;4.110;2023-02-03T20:22:52;3.97;;;1.17;;
73239;SDS011;61452;40.054;4.110;2023-02-03T20:27:54;2.65;;;1.15;;
73239;SDS011;61452;40.054;4.110;2023-02-03T20:32:58;3.65;;;1.30;;
73239;SDS011;61452;40.054;4.110;2023-02-03T20:38:01;4.47;;;1.13;;
73239;SDS011;61452;40.054;4.110;2023-02-03T20:43:14;3.35;;;1.40;;
73239;SDS011;61452;40.054;4.110;2023-02-03T20:48:19;3.95;;;1.20;;
73239;SDS011;61452;40.054;4.110;2023-02-03T20:53:24;3.35;;;1.20;;
73239;SDS011;61452;40.054;4.110;2023-02-03T20:58:28;2.95;;;1.38;;
73239;SDS011;61452;40.054;4.110;2023-02-03T21:03:33;3.28;;;1.10;;
73239;SDS011;61452;40.054;4.110;2023-02-03T21:08:53;4.55;;;1.20;;
73239;SDS011;61452;40.054;4.110;2023-02-03T21:14:02;4.00;;;0.95;;
73239;SDS011;61452;40.054;4.110;2023-02-03T21:19:07;3.55;;;1.25;;
73239;SDS011;61452;40.054;4.110;2023-02-03T21:24:20;3.47;;;1.58;;
73239;SDS011;61452;40.054;4.110;2023-02-03T21:29:32;3.50;;;1.20;;
73239;SDS011;61452;40.054;4.110;2023-02-03T21:34:40;3.75;;;1.10;;
73239;SDS011;61452;40.054;4.110;2023-02-03T21:39:43;5.35;;;2.20;;
73239;SDS011;61452;40.054;4.110;2023-02-03T21:44:46;3.35;;;1.23;;
73239;SDS011;61452;40.054;4.110;2023-02-03T21:49:48;3.33;;;1.20;;
73239;SDS011;61452;40.054;4.110;2023-02-03T21:54:51;3.72;;;1.30;;
73239;SDS011;61452;40.054;4.110;2023-02-03T21:59:53;2.90;;;1.00;;
73239;SDS011;61452;40.054;4.110;2023-02-03T22:04:55;2.92;;;1.35;;
73239;SDS011;61452;40.054;4.110;2023-02-03T22:09:58;4.78;;;1.45;;
73239;SDS011;61452;40.054;4.110;2023-02-03T22:15:00;2.70;;;1.15;;
73239;SDS011;61452;40.054;4.110;2023-02-03T22:20:03;3.35;;;1.38;;
73239;SDS011;61452;40.054;4.110;2023-02-03T22:25:05;3.95;;;1.83;;
73239;SDS011;61452;40.054;4.110;2023-02-03T22:30:11;3.75;;;1.02;;
73239;SDS011;61452;40.054;4.110;2023-02-03T22:35:15;3.17;;;1.20;;
73239;SDS011;61452;40.054;4.110;2023-02-03T22:40:17;3.33;;;1.10;;
73239;SDS011;61452;40.054;4.110;2023-02-03T22:45:19;4.43;;;1.15;;
73239;SDS011;61452;40.054;4.110;2023-02-03T22:50:22;4.35;;;1.30;;
73239;SDS011;61452;40.054;4.110;2023-02-03T22:55:35;4.00;;;1.17;;
73239;SDS011;61452;40.054;4.110;2023-02-03T23:00:38;3.70;;;1.25;;
73239;SDS011;61452;40.054;4.110;2023-02-03T23:05:41;3.05;;;0.90;;
73239;SDS011;61452;40.054;4.110;2023-02-03T23:10:43;3.03;;;1.23;;
73239;SDS011;61452;40.054;4.110;2023-02-03T23:15:45;5.40;;;0.95;;
73239;SDS011;61452;40.054;4.110;2023-02-03T23:20:47;4.80;;;1.30;;
73239;SDS011;61452;40.054;4.110;2023-02-03T23:25:49;3.25;;;1.15;;
73239;SDS011;61452;40.054;4.110;2023-02-03T23:30:52;4.25;;;1.15;;
73239;SDS011;61452;40.054;4.110;2023-02-03T23:35:54;2.38;;;0.90;;
73239;SDS011;61452;40.054;4.110;2023-02-03T23:40:56;5.57;;;1.10;;
73239;SDS011;61452;40.054;4.110;2023-02-03T23:45:58;3.40;;;1.33;;
73239;SDS011;61452;40.054;4.110;2023-02-03T23:51:00;2.92;;;1.40;;
73239;SDS011;61452;40.054;4.110;2023-02-03T23:56:02;3.13;;;1.23;;
